Rumusan perlumbaan (Litar: Istanbul | Musim: 19 | Perlumbaan: 13 | Kumpulan: Elite)

Musim:  Perlumbaan:

Pilih kumpulan lain:

Pos Perkembangan Tayar Kew Nama pengurus Masa perlumbaan Lap Hentian pit Lap terbaik Kelajuan purata Masa lap terbaik
01. +1 +1 Michelini   Toygun Senler1 1h24:41.811 58 1 1:26.073 219.18km/h 10.841s
02. -1 -1 Michelini   Edvinas Pranculevicius + 21.056 58 2 1:26.227 218.28km/h 11.410s
03. +3 +3 Michelini   Vladimir Islentiev2 + 31.242 58 2 1:26.393 217.84km/h 9.308s
04. +6 +6 Michelini   Jari Aareskoski3 + 33.861 58 1 1:26.586 217.73km/h 9.799s
05. +2 +2 Michelini   Jan Zaluski + 40.966 58 1 1:26.659 217.43km/h 14.068s
06. +3 +3 Michelini   Aleksej Sutkin + 41.894 58 1 1:26.727 217.39km/h 14.723s
07. -3 -3 Michelini   João Monteiro + 43.359 58 2 1:26.349 217.33km/h 12.341s
08. Tidak berubah ±0 Michelini   Zdenek Hladik + 51.345 58 2 1:26.293 216.99km/h 14.070s
09. +3 +3 Michelini   Denis Grahov + 1:01.280 58 1 1:27.172 216.57km/h 11.319s
10. +6 +6 Michelini   Marek Marchewka + 1:01.502 58 1 1:26.863 216.56km/h 12.593s
11. -6 -6 Michelini   Nuno Vicente + 1:02.388 58 2 1:26.946 216.52km/h 11.606s
12. +2 +2 Michelini   Wagner Souza + 1:02.598 58 1 1:27.047 216.51km/h 12.588s
13. +4 +4 Michelini   Laila Britāle + 1:06.079 58 1 1:27.044 216.37km/h 14.554s
14. +1 +1 Michelini   Renato Svaiter + 1:12.993 58 1 1:26.995 216.08km/h 17.728s
15. -4 -4 Michelini   Joan Centellas + 1:13.211 58 2 1:26.823 216.07km/h 11.275s
16. +3 +3 Michelini   Rimantas Sagatas + 1:25.312 58 1 1:27.521 215.56km/h 16.257s
17. -4 -4 Michelini   Martynas Molneris + 1:28.621 57 2 1:27.027 215.42km/h 11.281s
18. Tidak berubah ±0 Dunnolop   Oli Jais + 1:31.085 57 2 1:27.146 215.32km/h 12.248s
19. +5 +5 Dunnolop   Andrius Talandzevicius + 1:52.181 57 1 1:27.693 214.45km/h 17.200s
20. +3 +3 Dunnolop   Leandro Sereno2 + 2:04.141 57 2 1:27.394 213.96km/h 8.812s
21. +8 +8 Pipirelli   Mikko Heikkinen + 2:33.050 57 2 1:28.098 212.77km/h 14.969s
22. -19 -19 Michelini   Tomasz Kaminski + 2:41.890 57 2 1:26.525 212.41km/h 12.266s
23. +7 +7 Michelini   Lucas Secundo Abreu + 2:53.822 56 1 1:28.391 211.93km/h 29.365s
24. -4 -4 Dunnolop   Daniele Ambroggi + 4:24.294 55 1 1:30.370 208.35km/h 15.651s
25. Tidak berubah ±0 Badyear   Michał Smiatacz + 4:58.074 55 1 1:30.855 207.04km/h 20.512s
26. -4 -4 Badyear   Michael Monaco + 5:15.751 55 2 1:30.736 206.36km/h 19.748s
27. -1 -1 Badyear   Toni Söyrinki + 5:23.591 55 2 1:30.640 206.06km/h 14.933s
28. Tidak berubah ±0 Dunnolop   Kostas Farsalinos + 5:56.525 54 2 1:31.256 204.81km/h 25.109s
29. +4 +4 Badyear   Lee Ifans + 6:04.292 54 1 1:32.061 204.52km/h 25.987s
30. -3 -3 Dunnolop   Gabriel Toma + 6:19.170 54 3 1:30.918 203.96km/h 18.032s
31. +5 +5 Pipirelli   Martynas Atkočius + 6:22.725 54 1 1:32.058 203.83km/h 18.574s
32. +2 +2 Pipirelli   Philipp Hartmann + 6:22.853 54 2 1:31.847 203.83km/h 17.327s
33. -1 -1 Pipirelli   Craig Templeman + 6:27.948 54 1 1:31.726 203.64km/h 17.383s
34. +3 +3 Michelini   Martin Rosina + 8:04.073 53 3 1:32.821 200.12km/h 13.910s
Tidak tersenarai
35. -4 -4 Dunnolop   Michalis Marolachakis Masalah teknikal 40 1 1:33.153    15.019s
36. -1 -1 Michelini   Filipe Miguel Masalah teknikal 35 3 1:29.790    18.984s
37. -16 -16 Michelini   Vitor Novo Masalah teknikal 22 0 1:32.105    -